Terminal Aerodrome Forecast
Issued by NWS

Home | Current Version | Previous Version | Text Only | Print | Product List | Glossary Off
Versions: 1 2 3 4 5 6 7 8 9 10 11 12 13 14 15 16

000
FTUS43 KGRB 260500
TAFCWA
TAF
KCWA 260520Z 2606/2706 28012G18KT P6SM BKN035
     FM260900 28011G15KT P6SM BKN035
     FM261400 32012G15KT P6SM BKN030
     FM270200 34009KT P6SM SCT030
      AMD LTD TO CLD VIS AND WIND TIL 261200=

USA.gov is the U.S. government's official web portal to all federal, state and local government web resources and services.